Terminal Aerodrome Forecast
Issued by NWS

Home | Current Version | Previous Version | Text Only | Print | Product List | Glossary On
Versions: 1 2 3 4 5 6 7 8 9 10 11 12 13 14 15
000
FTUS41 KBTV 250531
TAFMSS
TAF
KMSS 250531Z 2506/2606 05015KT P6SM VCSH OVC008
      TEMPO 2506/2510 5SM -SHRA BR SCT008 OVC025
     FM251400 05011KT P6SM OVC012
     FM251700 05007KT P6SM BKN025
     FM251900 05007KT P6SM SCT040
     FM252300 08004KT P6SM SKC=

USA.gov is the U.S. government's official web portal to all federal, state and local government web resources and services.